createdAt,value
2018-10-07T00:00:01.897Z,9.85
2018-10-07T00:01:05.284Z,9.10
2018-10-07T00:02:08.930Z,8.55
2018-10-07T00:03:12.276Z,8.60
2018-10-07T00:04:15.652Z,8.20
2018-10-07T00:05:19.002Z,8.00
2018-10-07T00:06:22.386Z,8.23
2018-10-07T00:07:25.762Z,8.13
2018-10-07T00:08:29.106Z,9.00
2018-10-07T00:09:32.454Z,7.87
2018-10-07T00:10:35.801Z,8.18
2018-10-07T00:11:39.203Z,7.85
2018-10-07T00:12:42.573Z,6.95
2018-10-07T00:13:52.344Z,7.67
2018-10-07T00:14:55.747Z,7.67
2018-10-07T00:15:59.102Z,7.95
2018-10-07T00:17:02.470Z,7.20
2018-10-07T00:18:05.912Z,7.87
2018-10-07T00:19:09.256Z,7.00
2018-10-07T00:20:12.607Z,6.87
2018-10-07T00:21:15.976Z,8.20
2018-10-07T00:22:19.349Z,7.75
2018-10-07T00:23:22.720Z,8.00
2018-10-07T00:24:26.067Z,7.60
2018-10-07T00:25:29.441Z,7.20
2018-10-07T00:26:32.798Z,8.08
2018-10-07T00:27:36.213Z,6.30
2018-10-07T00:28:39.568Z,7.78
2018-10-07T00:29:42.913Z,6.70
2018-10-07T00:30:46.261Z,6.90
2018-10-07T00:31:54.845Z,7.65
2018-10-07T00:32:58.217Z,7.22
2018-10-07T00:34:01.645Z,6.95
2018-10-07T00:35:04.991Z,7.75
2018-10-07T00:36:08.349Z,6.90
2018-10-07T00:37:11.717Z,7.45
2018-10-07T00:38:15.061Z,7.20
2018-10-07T00:39:18.448Z,7.12
2018-10-07T00:40:21.797Z,7.20
2018-10-07T00:41:25.149Z,6.80
2018-10-07T00:42:28.537Z,7.47
2018-10-07T00:43:31.877Z,7.22
2018-10-07T00:44:35.246Z,6.80
2018-10-07T00:45:38.593Z,7.87
2018-10-07T00:46:41.968Z,7.40
2018-10-07T00:47:45.365Z,7.25
2018-10-07T00:48:48.706Z,7.22
2018-10-07T00:49:52.060Z,7.47
2018-10-07T00:50:55.408Z,7.12
2018-10-07T00:51:58.760Z,7.00
2018-10-07T00:53:02.168Z,6.90
2018-10-07T00:54:05.524Z,6.67
2018-10-07T00:55:08.894Z,7.28
2018-10-07T00:56:12.256Z,7.70
2018-10-07T00:57:15.629Z,6.87
2018-10-07T00:58:19.004Z,7.50
2018-10-07T00:59:22.441Z,7.05
2018-10-07T01:00:25.798Z,7.67
2018-10-07T01:01:29.147Z,9.10
2018-10-07T01:02:32.494Z,8.10
2018-10-07T01:03:35.878Z,8.03
2018-10-07T01:04:39.234Z,7.80
2018-10-07T01:05:42.581Z,7.17
2018-10-07T01:06:45.929Z,7.25
2018-10-07T01:07:49.337Z,7.30
2018-10-07T01:08:52.688Z,8.18
2018-10-07T01:09:56.024Z,7.47
2018-10-07T01:10:59.378Z,7.22
2018-10-07T01:12:02.780Z,6.80
2018-10-07T01:13:06.328Z,8.10
2018-10-07T01:14:10.276Z,7.20
2018-10-07T01:15:13.631Z,6.65
2018-10-07T01:16:16.984Z,7.12
2018-10-07T01:17:20.398Z,6.78
2018-10-07T01:18:23.789Z,7.60
2018-10-07T01:19:27.160Z,8.00
2018-10-07T01:20:30.514Z,9.03
2018-10-07T01:21:33.927Z,7.80
2018-10-07T01:22:37.335Z,8.30
2018-10-07T01:23:40.720Z,8.20
2018-10-07T01:24:44.106Z,8.75
2018-10-07T01:25:47.436Z,7.05
2018-10-07T01:26:50.781Z,7.05
2018-10-07T01:27:54.142Z,7.15
2018-10-07T01:28:57.514Z,7.60
2018-10-07T01:30:00.913Z,7.00
2018-10-07T01:31:04.266Z,7.50
2018-10-07T01:32:07.688Z,7.20
2018-10-07T01:33:11.044Z,7.90
2018-10-07T01:34:14.392Z,6.47
2018-10-07T01:35:17.760Z,6.53
2018-10-07T01:36:21.315Z,7.05
2018-10-07T01:37:24.646Z,7.80
2018-10-07T01:38:27.996Z,7.28
2018-10-07T01:39:31.336Z,6.75
2018-10-07T01:40:34.704Z,6.85
2018-10-07T01:41:38.040Z,7.55
2018-10-07T01:42:41.383Z,7.65
2018-10-07T01:43:44.764Z,6.80
2018-10-07T01:44:48.144Z,6.80
2018-10-07T01:45:51.584Z,7.53
2018-10-07T01:46:54.939Z,6.90
2018-10-07T01:47:58.272Z,7.33
2018-10-07T01:49:01.628Z,7.53
2018-10-07T01:50:05.069Z,7.75
2018-10-07T01:51:08.398Z,7.45
2018-10-07T01:52:11.743Z,7.25
2018-10-07T01:53:15.102Z,7.10
2018-10-07T01:54:18.472Z,7.60
2018-10-07T01:55:21.820Z,7.17
2018-10-07T01:56:25.161Z,7.50
2018-10-07T01:57:28.545Z,7.37
2018-10-07T01:58:31.920Z,7.90
2018-10-07T01:59:35.257Z,8.08
2018-10-07T02:00:38.617Z,7.28
2018-10-07T02:01:44.957Z,7.47
2018-10-07T02:02:48.293Z,7.35
2018-10-07T02:03:51.629Z,7.45
2018-10-07T02:04:54.994Z,7.03
2018-10-07T02:05:58.361Z,7.17
2018-10-07T02:07:01.792Z,7.75
2018-10-07T02:08:05.237Z,7.47
2018-10-07T02:09:09.701Z,7.50
2018-10-07T02:10:13.052Z,7.65
2018-10-07T02:11:16.396Z,7.37
2018-10-07T02:12:19.769Z,8.50
2018-10-07T02:13:23.114Z,7.95
2018-10-07T02:14:26.492Z,8.40
2018-10-07T02:15:29.883Z,8.53
2018-10-07T02:16:33.222Z,9.93
2018-10-07T02:17:36.589Z,9.15
2018-10-07T02:18:39.985Z,10.90
2018-10-07T02:19:43.337Z,10.45
2018-10-07T02:20:46.695Z,10.78
2018-10-07T02:21:50.122Z,11.03
2018-10-07T02:22:53.468Z,9.40
2018-10-07T02:23:56.848Z,9.38
2018-10-07T02:25:00.188Z,9.70
2018-10-07T02:26:03.572Z,10.03
2018-10-07T02:27:06.922Z,9.13
2018-10-07T02:28:10.301Z,9.23
2018-10-07T02:29:13.648Z,9.28
2018-10-07T02:30:17.001Z,9.65
2018-10-07T02:31:20.376Z,9.73
2018-10-07T02:32:23.744Z,10.63
2018-10-07T02:33:27.107Z,9.15
2018-10-07T02:34:30.455Z,9.23
2018-10-07T02:35:33.876Z,9.05
2018-10-07T02:36:37.210Z,8.15
2018-10-07T02:37:40.577Z,8.63
2018-10-07T02:38:43.916Z,8.80
2018-10-07T02:39:47.261Z,8.50
2018-10-07T02:40:50.629Z,9.63
2018-10-07T02:41:53.976Z,9.35
2018-10-07T02:42:57.332Z,9.70
2018-10-07T02:44:00.666Z,9.50
2018-10-07T02:45:04.069Z,9.30
2018-10-07T02:46:07.890Z,9.40
2018-10-07T02:47:11.228Z,9.28
2018-10-07T02:48:14.569Z,8.40
2018-10-07T02:49:17.954Z,9.63
2018-10-07T02:50:22.441Z,8.50
2018-10-07T02:51:25.825Z,8.48
2018-10-07T02:52:34.424Z,8.90
2018-10-07T02:53:37.782Z,9.03
2018-10-07T02:54:41.137Z,9.38
2018-10-07T02:55:44.768Z,9.18
2018-10-07T02:56:48.136Z,9.90
2018-10-07T02:57:52.911Z,9.10
2018-10-07T02:58:56.308Z,9.73
2018-10-07T02:59:59.665Z,9.30
2018-10-07T03:01:03.069Z,10.72
2018-10-07T03:02:06.447Z,10.15
2018-10-07T03:03:09.817Z,9.05
2018-10-07T03:04:13.172Z,10.88
2018-10-07T03:05:16.541Z,10.25
2018-10-07T03:06:19.922Z,9.93
2018-10-07T03:07:23.289Z,10.18
2018-10-07T03:08:26.638Z,10.20
2018-10-07T03:09:29.997Z,9.83
2018-10-07T03:10:33.404Z,10.58
2018-10-07T03:11:36.761Z,10.60
2018-10-07T03:12:40.134Z,10.75
2018-10-07T03:13:43.470Z,8.60
2018-10-07T03:14:46.817Z,9.20
2018-10-07T03:15:50.188Z,9.35
2018-10-07T03:16:53.533Z,9.60
2018-10-07T03:17:56.889Z,9.28
2018-10-07T03:19:00.260Z,8.93
2018-10-07T03:20:03.643Z,10.45
2018-10-07T03:21:07.121Z,8.70
2018-10-07T03:22:10.512Z,10.13
2018-10-07T03:23:13.886Z,10.10
2018-10-07T03:24:17.248Z,9.38
2018-10-07T03:25:20.597Z,9.50
2018-10-07T03:26:24.034Z,8.93
2018-10-07T03:27:27.414Z,9.93
2018-10-07T03:28:30.815Z,8.88
2018-10-07T03:29:34.242Z,9.48
2018-10-07T03:30:37.564Z,9.60
2018-10-07T03:31:40.945Z,10.05
2018-10-07T03:32:44.304Z,11.35
2018-10-07T03:33:47.642Z,9.80
2018-10-07T03:34:51.004Z,10.25
2018-10-07T03:35:54.487Z,9.83
2018-10-07T03:36:57.829Z,10.15
2018-10-07T03:38:01.211Z,10.72
2018-10-07T03:39:05.883Z,9.60
2018-10-07T03:40:09.232Z,10.38
2018-10-07T03:41:12.605Z,11.15
2018-10-07T03:42:16.318Z,9.90
2018-10-07T03:43:19.688Z,9.98
2018-10-07T03:44:23.028Z,10.75
2018-10-07T03:45:26.366Z,10.80
2018-10-07T03:46:29.711Z,11.12
2018-10-07T03:47:33.060Z,11.12
2018-10-07T03:48:36.544Z,11.78
2018-10-07T03:49:40.076Z,11.28
2018-10-07T03:50:43.457Z,12.88
2018-10-07T03:51:46.791Z,11.80
2018-10-07T03:52:50.141Z,12.33
2018-10-07T03:53:53.497Z,11.95
2018-10-07T03:54:56.876Z,12.37
2018-10-07T03:56:00.628Z,12.55
2018-10-07T03:57:03.978Z,12.55
2018-10-07T03:58:07.322Z,12.35
2018-10-07T03:59:10.668Z,12.95
2018-10-07T04:00:14.025Z,13.28
2018-10-07T04:01:17.487Z,12.50
2018-10-07T04:02:20.860Z,12.45
2018-10-07T04:03:24.212Z,12.25
2018-10-07T04:04:27.712Z,12.63
2018-10-07T04:05:31.089Z,13.75
2018-10-07T04:06:34.445Z,13.75
2018-10-07T04:07:37.869Z,12.58
2018-10-07T04:08:41.225Z,13.35
2018-10-07T04:09:50.880Z,12.00
2018-10-07T04:10:54.237Z,13.75
2018-10-07T04:11:57.598Z,15.80
2018-10-07T04:13:00.980Z,16.07
2018-10-07T04:14:04.357Z,19.10
2018-10-07T04:15:07.818Z,20.97
2018-10-07T04:16:11.195Z,19.67
2018-10-07T04:17:14.545Z,22.82
2018-10-07T04:18:17.925Z,20.68
2018-10-07T04:19:21.308Z,22.20
2018-10-07T04:20:24.644Z,24.00
2018-10-07T04:21:27.996Z,21.70
2018-10-07T04:22:31.341Z,22.30
2018-10-07T04:23:35.183Z,24.65
2018-10-07T04:24:38.573Z,25.20
2018-10-07T04:25:41.923Z,25.10
2018-10-07T04:26:45.282Z,25.68
2018-10-07T04:27:48.626Z,25.30
2018-10-07T04:28:51.993Z,23.85
2018-10-07T04:29:55.370Z,18.10
2018-10-07T04:30:58.754Z,15.85
2018-10-07T04:32:02.135Z,14.35
2018-10-07T04:33:05.485Z,13.75
2018-10-07T04:34:08.851Z,13.83
2018-10-07T04:35:12.235Z,13.32
2018-10-07T04:36:15.573Z,13.35
2018-10-07T04:37:18.921Z,13.40
2018-10-07T04:38:22.264Z,13.65
2018-10-07T04:39:25.627Z,12.30
2018-10-07T04:40:29.025Z,13.98
2018-10-07T04:41:32.373Z,13.88
2018-10-07T04:42:35.705Z,13.55
2018-10-07T04:43:39.075Z,14.68
2018-10-07T04:44:42.416Z,14.40
2018-10-07T04:45:45.789Z,14.30
2018-10-07T04:46:49.149Z,14.93
2018-10-07T04:47:52.502Z,15.60
2018-10-07T04:48:55.896Z,15.40
2018-10-07T04:49:59.256Z,16.52
2018-10-07T04:51:02.601Z,17.30
2018-10-07T04:52:06.001Z,17.95
2018-10-07T04:53:09.342Z,16.97
2018-10-07T04:54:12.740Z,18.52
2018-10-07T04:55:16.084Z,18.45
2018-10-07T04:56:19.436Z,18.37
2018-10-07T04:57:22.812Z,20.00
2018-10-07T04:58:26.224Z,20.85
2018-10-07T04:59:29.564Z,23.90
2018-10-07T05:00:32.917Z,27.02
2018-10-07T05:01:36.285Z,27.40
2018-10-07T05:02:39.633Z,27.13
2018-10-07T05:03:43.178Z,29.30
2018-10-07T05:04:46.536Z,31.85
2018-10-07T05:05:49.986Z,31.45
2018-10-07T05:06:53.368Z,34.65
2018-10-07T05:07:56.736Z,33.90
2018-10-07T05:09:01.476Z,35.85
2018-10-07T05:10:15.974Z,36.15
2018-10-07T05:11:19.400Z,37.08
2018-10-07T05:12:22.826Z,35.92
2018-10-07T05:13:53.640Z,34.35
2018-10-07T05:14:57.081Z,38.53
2018-10-07T05:16:02.300Z,37.65
2018-10-07T05:17:05.737Z,38.23
2018-10-07T05:18:09.757Z,39.90
2018-10-07T05:19:13.132Z,40.55
2018-10-07T05:20:16.481Z,39.48
2018-10-07T05:21:19.860Z,37.95
2018-10-07T05:22:23.740Z,39.15
2018-10-07T05:23:27.161Z,40.43
2018-10-07T05:24:30.521Z,40.33
2018-10-07T05:25:33.958Z,39.90
2018-10-07T05:26:37.302Z,40.60
2018-10-07T05:27:40.644Z,40.00
2018-10-07T05:28:44.041Z,42.05
2018-10-07T05:29:47.432Z,42.80
2018-10-07T05:30:50.785Z,42.25
2018-10-07T05:31:54.167Z,43.65
2018-10-07T05:32:57.557Z,42.05
2018-10-07T05:34:00.957Z,41.35
2018-10-07T05:35:04.337Z,43.98
2018-10-07T05:36:07.725Z,44.75
2018-10-07T05:37:11.157Z,44.65
2018-10-07T05:38:14.563Z,43.05
2018-10-07T05:39:24.432Z,43.08
2018-10-07T05:40:27.776Z,43.28
2018-10-07T05:41:31.122Z,41.48
2018-10-07T05:42:34.467Z,41.60
2018-10-07T05:43:37.872Z,41.20
2018-10-07T05:44:41.248Z,42.35
2018-10-07T05:45:44.654Z,40.45
2018-10-07T05:46:48.000Z,41.73
2018-10-07T05:47:51.340Z,40.80
2018-10-07T05:48:54.733Z,36.75
2018-10-07T05:49:58.090Z,37.28
2018-10-07T05:51:01.436Z,33.95
2018-10-07T05:52:04.823Z,33.38
2018-10-07T05:53:08.183Z,31.40
2018-10-07T05:54:11.556Z,29.72
2018-10-07T05:55:14.919Z,27.80
2018-10-07T05:56:18.301Z,28.12
2018-10-07T05:57:21.709Z,24.35
2018-10-07T05:58:25.093Z,24.27
2018-10-07T05:59:29.381Z,20.50
2018-10-07T06:00:33.393Z,21.55
2018-10-07T06:01:41.152Z,23.90
2018-10-07T06:02:45.868Z,21.10
2018-10-07T06:03:55.648Z,21.30
2018-10-07T06:04:59.505Z,20.80
2018-10-07T06:06:02.888Z,20.88
2018-10-07T06:07:06.274Z,20.82
2018-10-07T06:08:10.053Z,23.10
2018-10-07T06:09:18.624Z,20.85
2018-10-07T06:10:21.960Z,20.82
2018-10-07T06:11:25.319Z,22.17
2018-10-07T06:12:28.665Z,19.87
2018-10-07T06:13:32.105Z,20.88
2018-10-07T06:14:46.771Z,19.98
2018-10-07T06:15:50.151Z,20.85
2018-10-07T06:16:53.492Z,21.48
2018-10-07T06:17:57.256Z,20.80
2018-10-07T06:19:00.613Z,20.45
2018-10-07T06:20:04.046Z,20.05
2018-10-07T06:21:07.396Z,21.23
2018-10-07T06:22:10.793Z,19.95
2018-10-07T06:23:14.149Z,21.48
2018-10-07T06:24:17.529Z,22.27
2018-10-07T06:25:20.897Z,20.32
2018-10-07T06:26:24.247Z,20.02
2018-10-07T06:27:27.652Z,21.27
2018-10-07T06:28:31.021Z,19.42
2018-10-07T06:29:34.378Z,19.85
2018-10-07T06:30:37.720Z,20.23
2018-10-07T06:31:41.097Z,21.35
2018-10-07T06:32:44.470Z,21.77
2018-10-07T06:33:47.884Z,18.73
2018-10-07T06:34:51.221Z,18.12
2018-10-07T06:35:54.584Z,19.00
2018-10-07T06:36:57.950Z,19.05
2018-10-07T06:38:01.337Z,17.90
2018-10-07T06:39:04.979Z,18.87
2018-10-07T06:40:08.365Z,17.70
2018-10-07T06:41:11.712Z,18.05
2018-10-07T06:42:15.087Z,18.15
2018-10-07T06:43:18.457Z,17.57
2018-10-07T06:44:22.425Z,16.93
2018-10-07T06:45:25.857Z,18.17
2018-10-07T06:46:29.188Z,19.00
2018-10-07T06:47:32.554Z,18.50
2018-10-07T06:48:35.901Z,16.45
2018-10-07T06:49:39.277Z,17.35
2018-10-07T06:50:42.626Z,16.93
2018-10-07T06:51:46.008Z,18.20
2018-10-07T06:52:49.392Z,17.42
2018-10-07T06:53:52.737Z,17.27
2018-10-07T06:54:56.097Z,17.12
2018-10-07T06:55:59.510Z,16.85
2018-10-07T06:57:02.902Z,16.82
2018-10-07T06:58:06.501Z,16.62
2018-10-07T06:59:09.924Z,16.50
2018-10-07T07:00:13.352Z,16.60
2018-10-07T07:01:16.749Z,15.50
2018-10-07T07:02:20.197Z,14.00
2018-10-07T07:03:23.545Z,14.63
2018-10-07T07:04:26.896Z,16.48
2018-10-07T07:05:30.324Z,17.00
2018-10-07T07:06:33.741Z,16.23
2018-10-07T07:07:37.112Z,17.67
2018-10-07T07:08:40.516Z,15.80
2018-10-07T07:09:43.872Z,15.40
2018-10-07T07:10:47.232Z,17.07
2018-10-07T07:11:50.601Z,16.77
2018-10-07T07:12:53.973Z,17.30
2018-10-07T07:13:57.359Z,15.95
2018-10-07T07:15:00.725Z,16.95
2018-10-07T07:16:04.093Z,15.90
2018-10-07T07:17:07.432Z,17.35
2018-10-07T07:18:10.781Z,18.25
2018-10-07T07:19:14.167Z,16.70
2018-10-07T07:20:17.580Z,17.45
2018-10-07T07:21:20.925Z,17.10
2018-10-07T07:22:24.297Z,17.05
2018-10-07T07:23:27.747Z,16.95
2018-10-07T07:24:31.113Z,14.78
2018-10-07T07:25:34.510Z,14.63
2018-10-07T07:26:37.899Z,15.90
2018-10-07T07:27:41.253Z,14.28
2018-10-07T07:28:44.613Z,14.38
2018-10-07T07:29:48.000Z,15.55
2018-10-07T07:30:51.372Z,15.23
2018-10-07T07:31:54.752Z,15.93
2018-10-07T07:32:58.101Z,15.98
2018-10-07T07:34:01.468Z,13.70
2018-10-07T07:35:04.901Z,13.10
2018-10-07T07:36:08.258Z,13.55
2018-10-07T07:37:11.624Z,14.60
2018-10-07T07:38:14.993Z,14.35
2018-10-07T07:39:18.357Z,14.13
2018-10-07T07:40:21.741Z,13.45
2018-10-07T07:41:25.082Z,13.20
2018-10-07T07:42:28.496Z,12.30
2018-10-07T07:43:31.916Z,12.28
2018-10-07T07:44:35.262Z,12.75
2018-10-07T07:45:38.613Z,13.50
2018-10-07T07:46:41.992Z,10.20
2018-10-07T07:47:45.377Z,10.90
2018-10-07T07:48:48.761Z,11.00
2018-10-07T07:49:52.121Z,11.10
2018-10-07T07:50:55.474Z,9.48
2018-10-07T07:51:58.832Z,10.18
2018-10-07T07:53:02.234Z,10.28
2018-10-07T07:54:05.607Z,9.80
2018-10-07T07:55:08.998Z,9.53
2018-10-07T07:56:12.342Z,9.35
2018-10-07T07:57:15.677Z,8.48
2018-10-07T07:58:19.114Z,8.65
2018-10-07T07:59:22.468Z,8.53
2018-10-07T08:00:25.949Z,7.55
2018-10-07T08:01:29.302Z,7.67
2018-10-07T08:02:32.645Z,8.50
2018-10-07T08:03:35.997Z,8.08
2018-10-07T08:04:39.335Z,7.50
2018-10-07T08:05:42.714Z,8.28
2018-10-07T08:06:46.060Z,8.20
2018-10-07T08:07:49.401Z,10.00
2018-10-07T08:08:52.861Z,8.45
2018-10-07T08:09:56.333Z,8.90
2018-10-07T08:10:59.742Z,6.83
2018-10-07T08:12:03.137Z,7.60
2018-10-07T08:13:06.588Z,8.38
2018-10-07T08:14:09.932Z,8.35
2018-10-07T08:15:13.279Z,8.08
2018-10-07T08:16:16.621Z,8.15
2018-10-07T08:17:20.166Z,8.60
2018-10-07T08:18:23.420Z,9.13
2018-10-07T08:19:26.801Z,8.20
2018-10-07T08:20:30.153Z,8.33
2018-10-07T08:21:33.529Z,9.00
2018-10-07T08:22:36.909Z,8.80
2018-10-07T08:23:40.363Z,8.30
2018-10-07T08:24:43.764Z,8.63
2018-10-07T08:25:47.129Z,8.10
2018-10-07T08:26:50.512Z,8.30
2018-10-07T08:27:53.877Z,8.48
2018-10-07T08:28:57.260Z,8.15
2018-10-07T08:30:00.649Z,8.30
2018-10-07T08:31:03.992Z,9.03
2018-10-07T08:32:07.359Z,8.58
2018-10-07T08:33:10.753Z,9.78
2018-10-07T08:34:14.093Z,8.18
2018-10-07T08:35:17.449Z,8.80
2018-10-07T08:36:21.301Z,8.58
2018-10-07T08:37:24.661Z,8.20
2018-10-07T08:38:28.008Z,8.38
2018-10-07T08:39:31.377Z,8.25
2018-10-07T08:40:34.707Z,7.72
2018-10-07T08:41:38.243Z,7.50
2018-10-07T08:42:41.924Z,8.40
2018-10-07T08:43:45.302Z,7.72
2018-10-07T08:44:48.692Z,8.78
2018-10-07T08:45:52.044Z,8.60
2018-10-07T08:46:55.384Z,8.30
2018-10-07T08:47:58.746Z,8.28
2018-10-07T08:49:02.150Z,8.03
2018-10-07T08:50:05.532Z,7.85
2018-10-07T08:51:08.870Z,7.42
2018-10-07T08:52:12.204Z,8.80
2018-10-07T08:53:15.546Z,8.45
2018-10-07T08:54:18.948Z,7.00
2018-10-07T08:55:22.306Z,8.15
2018-10-07T08:56:25.697Z,8.03
2018-10-07T08:57:29.116Z,7.60
2018-10-07T08:58:32.456Z,6.83
2018-10-07T08:59:35.821Z,7.50
2018-10-07T09:00:39.338Z,7.90
2018-10-07T09:01:42.672Z,8.10
2018-10-07T09:02:46.050Z,8.55
2018-10-07T09:03:49.421Z,6.80
2018-10-07T09:04:52.761Z,7.70
2018-10-07T09:05:56.165Z,7.75
2018-10-07T09:06:59.532Z,7.78
2018-10-07T09:08:02.936Z,8.35
2018-10-07T09:09:07.613Z,7.80
2018-10-07T09:10:10.963Z,7.92
2018-10-07T09:11:14.297Z,8.50
2018-10-07T09:12:17.661Z,8.28
2018-10-07T09:13:21.045Z,7.28
2018-10-07T09:14:24.385Z,7.65
2018-10-07T09:15:27.720Z,6.95
2018-10-07T09:16:31.068Z,8.10
2018-10-07T09:17:34.519Z,8.33
2018-10-07T09:18:37.896Z,7.22
2018-10-07T09:19:41.238Z,27.90
2018-10-07T09:20:44.589Z,15.25
2018-10-07T09:21:54.593Z,9.85
2018-10-07T09:22:57.992Z,12.45
2018-10-07T09:24:01.403Z,69.45
2018-10-07T09:25:04.789Z,50.70
2018-10-07T09:26:08.157Z,18.82
2018-10-07T09:27:11.592Z,27.07
2018-10-07T09:28:14.996Z,16.25
2018-10-07T09:29:18.523Z,18.07
2018-10-07T09:30:21.873Z,10.93
2018-10-07T09:31:25.232Z,13.18
2018-10-07T09:32:28.713Z,12.88
2018-10-07T09:33:32.353Z,25.20
2018-10-07T09:34:35.744Z,11.38
2018-10-07T09:35:39.090Z,8.48
2018-10-07T09:36:42.432Z,20.68
2018-10-07T09:37:45.805Z,43.58
2018-10-07T09:38:49.175Z,43.85
2018-10-07T09:39:52.698Z,39.33
2018-10-07T09:40:56.047Z,76.25
2018-10-07T09:41:59.396Z,25.00
2018-10-07T09:43:02.857Z,8.80
2018-10-07T09:44:06.301Z,8.53
2018-10-07T09:45:09.692Z,9.00
2018-10-07T09:46:13.053Z,34.92
2018-10-07T09:47:16.531Z,10.68
2018-10-07T09:48:19.878Z,32.17
2018-10-07T09:49:23.252Z,17.07
2018-10-07T09:50:26.623Z,30.62
2018-10-07T09:51:29.984Z,21.33
2018-10-07T09:52:33.355Z,12.45
2018-10-07T09:53:36.693Z,8.53
2018-10-07T09:54:40.099Z,23.07
2018-10-07T09:55:43.442Z,12.20
2018-10-07T09:56:46.826Z,11.63
2018-10-07T09:57:50.188Z,7.90
2018-10-07T09:58:53.576Z,10.08
2018-10-07T09:59:56.919Z,15.00
2018-10-07T10:01:00.261Z,13.65
2018-10-07T10:02:03.653Z,8.68
2018-10-07T10:03:07.224Z,15.93
2018-10-07T10:04:10.662Z,13.60
2018-10-07T10:05:13.974Z,10.90
2018-10-07T10:06:17.332Z,9.85
2018-10-07T10:07:20.757Z,9.43
2018-10-07T10:08:24.151Z,7.85
2018-10-07T10:09:27.484Z,8.95
2018-10-07T10:10:30.854Z,12.58
2018-10-07T10:11:34.180Z,14.93
2018-10-07T10:12:37.540Z,11.63
2018-10-07T10:13:40.879Z,10.30
2018-10-07T10:14:44.292Z,14.40
2018-10-07T10:15:47.664Z,13.40
2018-10-07T10:16:55.404Z,9.05
2018-10-07T10:18:01.781Z,8.80
2018-10-07T10:19:07.706Z,7.72
2018-10-07T10:20:11.753Z,7.55
2018-10-07T10:21:25.321Z,7.22
2018-10-07T10:23:12.373Z,6.83
2018-10-07T10:24:57.132Z,6.47
2018-10-07T10:26:12.952Z,7.22
2018-10-07T10:28:21.085Z,5.78
2018-10-07T10:29:28.762Z,5.20
2018-10-07T10:30:42.332Z,5.35
2018-10-07T10:31:51.725Z,5.95
2018-10-07T10:33:06.348Z,6.50
2018-10-07T10:34:15.167Z,9.18
2018-10-07T10:35:35.141Z,7.58
2018-10-07T10:36:45.074Z,7.42
2018-10-07T10:38:14.489Z,7.00
2018-10-07T10:39:50.037Z,14.00
2018-10-07T10:41:01.147Z,23.42
2018-10-07T10:42:08.564Z,15.95
2018-10-07T10:43:17.083Z,8.95
2018-10-07T10:44:23.088Z,25.05
2018-10-07T10:45:32.614Z,8.80
2018-10-07T10:46:47.599Z,11.40
2018-10-07T10:47:52.811Z,8.38
2018-10-07T10:51:10.148Z,20.17
2018-10-07T10:52:16.984Z,14.07
2018-10-07T10:53:39.947Z,11.10
2018-10-07T10:54:47.495Z,10.50
2018-10-07T10:55:59.776Z,8.68
2018-10-07T10:57:10.148Z,10.95
2018-10-07T10:58:19.968Z,10.32
2018-10-07T11:00:34.480Z,9.68
2018-10-07T11:03:51.896Z,9.40
2018-10-07T11:05:08.793Z,5.90
2018-10-07T11:07:53.854Z,6.25
2018-10-07T11:09:18.536Z,7.05
2018-10-07T11:10:25.397Z,7.25
2018-10-07T11:11:43.272Z,6.30
2018-10-07T11:13:21.249Z,7.33
2018-10-07T11:16:37.836Z,6.22
2018-10-07T11:19:49.665Z,6.08
2018-10-07T11:24:09.231Z,5.53
2018-10-07T11:27:40.888Z,5.08
2018-10-07T11:28:57.585Z,4.60
2018-10-07T11:30:14.835Z,4.50
2018-10-07T11:31:28.304Z,3.45
2018-10-07T11:32:42.282Z,3.60
2018-10-07T11:34:12.506Z,3.50
2018-10-07T11:37:29.941Z,4.55
2018-10-07T11:40:49.478Z,3.55
2018-10-07T11:42:10.762Z,4.15
2018-10-07T11:43:51.497Z,3.95
2018-10-07T11:44:58.927Z,3.58
2018-10-07T11:46:13.060Z,3.70
2018-10-07T11:47:22.440Z,3.00
2018-10-07T11:49:31.318Z,2.62
2018-10-07T11:52:50.245Z,2.62
2018-10-07T11:53:56.677Z,2.75
2018-10-07T11:55:01.162Z,2.70
2018-10-07T11:56:04.496Z,3.83
2018-10-07T11:57:07.877Z,3.15
2018-10-07T11:58:11.220Z,2.80
2018-10-07T11:59:14.585Z,2.72
2018-10-07T12:00:17.970Z,2.85
2018-10-07T12:01:21.308Z,2.85
2018-10-07T12:02:24.680Z,2.85
2018-10-07T12:03:28.057Z,2.85
2018-10-07T12:04:31.392Z,2.80
2018-10-07T12:05:34.729Z,3.42
2018-10-07T12:06:38.069Z,3.70
2018-10-07T12:07:41.448Z,2.50
2018-10-07T12:08:44.795Z,3.30
2018-10-07T12:09:48.161Z,2.83
2018-10-07T12:10:51.488Z,2.40
2018-10-07T12:11:54.816Z,2.95
2018-10-07T12:12:58.172Z,2.50
2018-10-07T12:14:01.499Z,2.50
2018-10-07T12:15:05.008Z,2.10
2018-10-07T12:16:08.401Z,2.85
2018-10-07T12:17:11.732Z,2.70
2018-10-07T12:18:15.229Z,2.50
2018-10-07T12:19:18.618Z,2.47
2018-10-07T12:20:21.980Z,2.10
2018-10-07T12:21:25.308Z,2.15
2018-10-07T12:22:28.648Z,2.20
2018-10-07T12:23:32.032Z,2.40
2018-10-07T12:24:35.480Z,1.87
2018-10-07T12:26:48.416Z,1.82
2018-10-07T12:27:51.749Z,1.72
2018-10-07T12:28:55.126Z,1.82
2018-10-07T12:29:58.473Z,2.30
2018-10-07T12:31:01.829Z,1.95
2018-10-07T12:32:05.216Z,2.33
2018-10-07T12:33:08.628Z,2.07
2018-10-07T12:34:11.962Z,2.40
2018-10-07T12:35:15.300Z,1.90
2018-10-07T12:36:18.667Z,1.80
2018-10-07T12:37:22.009Z,1.80
2018-10-07T12:38:25.393Z,1.77
2018-10-07T12:39:28.720Z,1.90
2018-10-07T12:40:32.292Z,2.03
2018-10-07T12:41:35.628Z,2.10
2018-10-07T12:42:39.021Z,1.77
2018-10-07T12:43:42.357Z,1.63
2018-10-07T12:44:45.684Z,1.40
2018-10-07T12:45:49.015Z,1.40
2018-10-07T12:46:52.373Z,1.50
2018-10-07T12:47:55.743Z,2.30
2018-10-07T12:48:59.141Z,2.03
2018-10-07T12:50:02.485Z,1.77
2018-10-07T12:51:06.284Z,1.97
2018-10-07T12:52:09.625Z,1.90
2018-10-07T12:53:12.988Z,1.80
2018-10-07T12:54:16.374Z,2.17
2018-10-07T12:55:19.741Z,1.50
2018-10-07T12:56:23.077Z,1.57
2018-10-07T12:57:26.419Z,2.60
2018-10-07T12:58:29.749Z,11.40
2018-10-07T12:59:33.125Z,3.20
2018-10-07T13:00:36.455Z,5.03
2018-10-07T13:01:39.824Z,3.00
2018-10-07T13:02:43.172Z,2.47
2018-10-07T13:03:46.558Z,2.27
2018-10-07T13:04:49.855Z,2.03
2018-10-07T13:05:53.200Z,1.93
2018-10-07T13:06:56.566Z,2.03
2018-10-07T13:07:59.906Z,1.73
2018-10-07T13:09:03.584Z,1.60
2018-10-07T13:10:07.057Z,1.73
2018-10-07T13:11:10.396Z,1.53
2018-10-07T13:12:13.751Z,2.10
2018-10-07T13:13:17.112Z,1.90
2018-10-07T13:14:20.436Z,2.13
2018-10-07T13:15:23.777Z,1.87
2018-10-07T13:16:27.147Z,3.10
2018-10-07T13:17:30.520Z,2.00
2018-10-07T13:18:33.857Z,2.90
2018-10-07T13:19:37.229Z,3.43
2018-10-07T13:20:40.549Z,2.10
2018-10-07T13:21:43.937Z,1.70
2018-10-07T13:22:47.261Z,1.60
2018-10-07T13:23:50.596Z,1.60
2018-10-07T13:24:53.929Z,1.53
2018-10-07T13:25:57.337Z,1.40
2018-10-07T13:27:00.674Z,1.90
2018-10-07T13:28:03.997Z,2.23
2018-10-07T13:29:07.333Z,2.17
2018-10-07T13:30:10.712Z,2.20
2018-10-07T13:31:14.088Z,1.70
2018-10-07T13:32:17.414Z,1.80
2018-10-07T13:33:20.768Z,1.57
2018-10-07T13:34:24.133Z,1.53
2018-10-07T13:35:27.460Z,1.30
2018-10-07T13:36:30.853Z,1.60
2018-10-07T13:37:34.203Z,1.70
2018-10-07T13:38:37.548Z,2.87
2018-10-07T13:39:40.929Z,2.07
2018-10-07T13:40:44.287Z,1.50
2018-10-07T13:41:47.667Z,1.90
2018-10-07T13:42:51.018Z,1.63
2018-10-07T13:43:54.382Z,1.93
2018-10-07T13:44:57.705Z,1.60
2018-10-07T13:46:01.028Z,1.33
2018-10-07T13:47:04.433Z,1.50
2018-10-07T13:48:07.759Z,1.47
2018-10-07T13:49:11.080Z,1.30
2018-10-07T13:50:14.426Z,1.60
2018-10-07T13:51:17.768Z,1.40
2018-10-07T13:52:21.132Z,1.77
2018-10-07T13:53:24.550Z,1.30
2018-10-07T13:54:27.859Z,1.30
2018-10-07T13:55:31.237Z,1.23
2018-10-07T13:56:34.572Z,1.30
2018-10-07T13:57:37.919Z,1.83
2018-10-07T13:58:41.281Z,1.00
2018-10-07T13:59:44.608Z,1.30
2018-10-07T14:00:47.960Z,1.50
2018-10-07T14:01:51.321Z,1.50
2018-10-07T14:02:54.676Z,1.20
2018-10-07T14:03:58.094Z,1.30
2018-10-07T14:05:01.381Z,1.60
2018-10-07T14:06:04.744Z,1.00
2018-10-07T14:07:08.082Z,1.27
2018-10-07T14:08:11.488Z,1.30
2018-10-07T14:09:14.842Z,1.37
2018-10-07T14:10:18.188Z,1.40
2018-10-07T14:11:21.536Z,1.30
2018-10-07T14:12:24.862Z,1.10
2018-10-07T14:13:28.343Z,1.07
2018-10-07T14:14:31.744Z,1.47
2018-10-07T14:15:35.123Z,1.10
2018-10-07T14:16:38.448Z,1.53
2018-10-07T14:17:41.773Z,1.30
2018-10-07T14:18:45.117Z,1.20
2018-10-07T14:19:48.471Z,1.17
2018-10-07T14:20:51.793Z,1.13
2018-10-07T14:21:55.148Z,1.40
2018-10-07T14:22:58.485Z,0.97
2018-10-07T14:24:01.913Z,1.10
2018-10-07T14:25:05.387Z,1.30
2018-10-07T14:26:08.721Z,1.00
2018-10-07T14:27:12.048Z,1.13
2018-10-07T14:28:15.384Z,1.20
2018-10-07T14:29:18.760Z,1.20
2018-10-07T14:30:22.120Z,1.10
2018-10-07T14:31:25.506Z,1.00